Ottine, TX (78658)

5:47 AM CDT on August 28, 2016 (GMT -0500)
APRSWXNET | | Change Station

Elev 413 ft 29.68 °N, 97.65 °W | Updated 27 minutes ago

Clear
Clear
73 °F
Feels Like 70 °F
N
0
Wind Variable Wind from ENE
Gusts 0.0 mph

Today
High -- | Low -- °F
--% Chance of Precip.
Yesterday
High -- | Low -- °F
Precip. -- in
Pressure 29.97 in
Visibility 7.0 miles
Clouds Clear
Heat Index 70 °F
Dew Point 71 °F
Humidity 92%
Rainfall in
Snow Depth Not available.
7:05 AM 7:56 PM
Waning Crescent, 16% visible
METAR KT20 281035Z AUTO 03003KT 7SM CLR 22/22 A2997 RMK AO2 T02180218
Pressure 29.97 in
Visibility 7.0 miles
Clouds Clear
Heat Index 70 °F
Dew Point 71 °F
Humidity 92%
Rainfall in
Snow Depth Not available.
7:05 AM 7:56 PM
Waning Crescent, 16% visible
METAR KT20 281035Z AUTO 03003KT 7SM CLR 22/22 A2997 RMK AO2 T02180218

10-Day Weather Forecast

Almanac

Astronomy

Aug. 28, 2016 Rise Set
Actual Time
Civil Twilight
Nautical Twilight
Astronomical Twilight
Moon
Length of Visible Light
Length of Day
Tomorrow will be .
, % of the Moon is Illuminated

Today's Extremes

State Highs State Lows

Community

WunderPhotos

Upload Photos

1,935,541 photos uploaded!

WunderBlog® & News

Nearby

Air Quality

  Air Quality AQ Index Pollutant
Not available.

Snow Depth

Station Depth Elevation

Earthquake Activity

City Distance Mag. Time & Date
Minimum magnitude displayed is 2.5.

Coastal Water Temperatures

Place Temperature

Stations

Nearby Weather Stations

Station Location Temp. Windchill Dew Point Humidity Wind Precip. Elev Updated Type
                   

Watches & Warnings

There are currently no watches in effect.